Time;durP1;ratioP1;P1;durP2;ratioP2;P2;SDS_P1;SDS_P2;PMS_P1;PMS_P2;Temp;Humidity;BMP_temperature;BMP_pressure;BME280_temperature;BME280_humidity;BME280_pressure;Samples;Min_cycle;Max_cycle;Signal;HPM_P1;HPM_P2
2022/02/03 00:02:30;;;;;;;17.10;10.40;;;7.50;81.40;;;;;;4960932;28;20508;-47
2022/02/03 00:05:10;;;;;;;14.97;8.93;;;7.40;81.40;;;;;;4979509;28;20448;-47
2022/02/03 00:24:39;;;;;;;17.27;10.57;;;7.50;81.90;;;;;;4961312;28;20462;-47
2022/02/03 00:27:35;;;;;;;14.83;10.00;;;7.50;81.90;;;;;;4982687;28;20458;-47
2022/02/03 00:30:08;;;;;;;16.90;9.07;;;7.50;81.80;;;;;;4980289;28;20826;-47
2022/02/03 00:49:00;;;;;;;15.87;10.17;;;7.50;81.90;;;;;;4980156;28;20461;-46
2022/02/03 00:51:28;;;;;;;13.60;9.47;;;7.50;82.00;;;;;;4979525;28;20547;-46
2022/02/03 00:53:56;;;;;;;13.63;9.30;;;7.50;82.10;;;;;;4976784;28;20822;-46
2022/02/03 00:56:36;;;;;;;16.03;9.90;;;7.50;82.20;;;;;;4978457;28;20476;-46
2022/02/03 00:59:13;;;;;;;15.63;9.73;;;7.60;82.40;;;;;;4978600;28;20458;-47
2022/02/03 01:01:45;;;;;;;17.57;10.90;;;7.60;82.30;;;;;;4980284;28;20463;-47
2022/02/03 01:04:14;;;;;;;14.87;9.57;;;7.60;82.10;;;;;;4978640;28;20864;-47
2022/02/03 01:06:55;;;;;;;18.23;9.90;;;7.60;82.40;;;;;;4978545;28;20461;-47
2022/02/03 01:09:25;;;;;;;15.80;9.90;;;7.70;82.40;;;;;;4988621;28;20461;-48
2022/02/03 01:12:09;;;;;;;20.53;10.83;;;7.60;82.40;;;;;;4980273;28;21038;-46
2022/02/03 01:47:03;;;;;;;15.00;9.17;;;7.60;82.70;;;;;;4984423;28;20950;-47
2022/02/03 01:52:33;;;;;;;19.30;10.10;;;7.60;82.60;;;;;;4919818;28;20464;-47
2022/02/03 01:55:03;;;;;;;17.30;9.63;;;7.60;82.40;;;;;;4991964;28;20848;-46
2022/02/03 01:57:50;;;;;;;15.53;8.67;;;7.60;82.50;;;;;;4982219;28;20495;-47
2022/02/03 02:00:18;;;;;;;19.57;8.73;;;7.70;82.30;;;;;;4975966;28;20469;-46
2022/02/03 02:02:49;;;;;;;22.13;8.63;;;7.70;82.40;;;;;;4982687;28;20485;-46
2022/02/03 02:06:12;;;;;;;22.33;8.80;;;7.70;82.10;;;;;;4982799;28;20461;-47
2022/02/03 02:08:54;;;;;;;16.43;9.23;;;7.60;82.30;;;;;;4965059;28;20463;-47
2022/02/03 02:11:40;;;;;;;13.83;8.63;;;7.60;82.30;;;;;;5013161;28;20990;-47
2022/02/03 02:36:53;;;;;;;15.60;9.00;;;7.60;82.30;;;;;;4923018;29;20459;-47
2022/02/03 02:40:41;;;;;;;12.97;8.47;;;7.70;82.40;;;;;;4974986;28;20457;-46
2022/02/03 02:43:27;;;;;;;17.97;9.10;;;7.70;82.30;;;;;;4981626;28;20496;-46
2022/02/03 02:46:08;;;;;;;15.20;7.83;;;7.70;82.30;;;;;;4980481;28;20457;-46
2022/02/03 02:48:59;;;;;;;9.37;7.40;;;7.70;82.50;;;;;;4981077;28;20461;-46
2022/02/03 02:51:36;;;;;;;14.03;8.10;;;7.70;82.30;;;;;;4980581;28;20466;-46
2022/02/03 02:54:26;;;;;;;20.37;9.03;;;7.70;82.30;;;;;;4976186;28;20465;-47
2022/02/03 03:35:47;;;;;;;15.70;9.43;;;7.60;82.10;;;;;;4997393;28;20955;-49
2022/02/03 03:38:21;;;;;;;12.70;8.60;;;7.60;82.30;;;;;;4996448;28;20459;-49
2022/02/03 03:40:51;;;;;;;17.33;8.47;;;7.60;82.00;;;;;;4999199;28;20454;-50
2022/02/03 03:43:29;;;;;;;16.67;9.60;;;7.60;81.90;;;;;;4996541;28;20479;-49
2022/02/03 03:45:59;;;;;;;20.37;9.33;;;7.60;82.00;;;;;;5002594;28;20516;-50
2022/02/03 03:48:31;;;;;;;13.33;8.10;;;7.60;81.90;;;;;;4997461;28;20607;-49
2022/02/03 03:51:01;;;;;;;17.10;8.80;;;7.70;81.90;;;;;;4998873;28;20457;-49
2022/02/03 03:53:43;;;;;;;20.77;9.20;;;7.60;81.90;;;;;;4999423;28;20525;-49
2022/02/03 03:56:23;;;;;;;18.30;8.70;;;7.60;81.80;;;;;;4993135;28;20458;-49
2022/02/03 04:00:16;;;;;;;15.53;8.87;;;7.60;81.80;;;;;;4994776;28;20503;-48
2022/02/03 04:35:17;;;;;;;22.60;9.60;;;7.50;82.30;;;;;;5019615;28;20461;-49
2022/02/03 04:40:50;;;;;;;15.83;8.90;;;7.50;82.60;;;;;;4993941;28;20466;-49
2022/02/03 04:56:50;;;;;;;16.33;8.43;;;7.60;82.70;;;;;;4996370;28;20955;-48
2022/02/03 05:02:08;;;;;;;19.33;9.20;;;7.70;82.50;;;;;;4999943;28;20457;-49
2022/02/03 05:05:26;;;;;;;15.13;8.60;;;7.70;82.40;;;;;;5025308;28;20522;-48
2022/02/03 05:08:23;;;;;;;17.93;8.47;;;7.60;82.60;;;;;;4996994;28;20493;-48
2022/02/03 05:11:51;;;;;;;18.20;9.07;;;7.50;82.90;;;;;;4999818;28;20447;-49
2022/02/03 05:21:02;;;;;;;23.00;10.87;;;7.60;83.00;;;;;;4999375;28;20519;-49
2022/02/03 05:44:21;;;;;;;17.37;9.60;;;7.50;83.30;;;;;;4999359;28;20612;-49
2022/02/03 06:03:53;;;;;;;12.17;8.13;;;7.50;84.00;;;;;;5002675;28;20501;-49
2022/02/03 06:14:20;;;;;;;19.80;10.80;;;7.50;84.10;;;;;;5002118;28;20577;-49
2022/02/03 06:22:40;;;;;;;;;;;;;;;;;;;;;
2022/02/03 06:27:49;;;;;;;17.07;9.27;;;7.60;84.30;;;;;;4995631;28;20453;-49
2022/02/03 06:30:20;;;;;;;14.70;9.40;;;7.60;84.70;;;;;;4996001;28;20452;-49
2022/02/03 06:32:49;;;;;;;19.80;12.30;;;7.70;85.70;;;;;;4996740;28;20462;-49
2022/02/03 06:35:19;;;;;;;23.43;13.00;;;7.70;86.10;;;;;;5004111;28;20493;-49
2022/02/03 06:37:48;;;;;;;17.43;11.43;;;7.80;86.60;;;;;;5004548;28;20488;-49
2022/02/03 06:40:16;;;;;;;10.70;7.23;;;7.90;87.20;;;;;;5000698;28;20488;-48
2022/02/03 06:42:45;;;;;;;8.83;7.50;;;7.90;87.60;;;;;;5029838;28;20490;-49
2022/02/03 06:45:31;;;;;;;10.03;6.03;;;7.90;87.80;;;;;;5006458;28;20485;-48
2022/02/03 06:48:06;;;;;;;14.90;8.90;;;8.00;87.80;;;;;;5006584;28;20460;-49
2022/02/03 06:50:46;;;;;;;8.80;5.83;;;8.00;88.00;;;;;;5001516;28;20457;-49
2022/02/03 06:53:18;;;;;;;7.47;4.50;;;8.10;88.60;;;;;;5002416;28;20480;-48
2022/02/03 06:56:02;;;;;;;4.20;3.77;;;8.20;89.10;;;;;;5002578;28;20469;-49
2022/02/03 06:58:41;;;;;;;;;;;;;;;;;;;;;
2022/02/03 07:03:32;;;;;;;4.80;4.03;;;8.30;88.90;;;;;;5000093;28;20500;-48
2022/02/03 07:05:59;;;;;;;4.30;3.40;;;8.30;89.10;;;;;;4985900;28;20457;-49
2022/02/03 07:08:28;;;;;;;3.00;2.80;;;8.40;89.00;;;;;;4996191;28;20553;-49
2022/02/03 07:10:56;;;;;;;3.60;3.10;;;8.50;89.00;;;;;;4996146;28;20461;-50
2022/02/03 07:13:26;;;;;;;4.00;3.30;;;8.50;89.10;;;;;;4998325;28;20512;-49
2022/02/03 07:15:53;;;;;;;4.53;3.50;;;8.50;89.00;;;;;;4998800;28;20542;-49
2022/02/03 07:18:20;;;;;;;3.43;3.13;;;8.50;89.10;;;;;;4993704;28;20469;-49
2022/02/03 07:20:48;;;;;;;5.47;4.97;;;8.50;89.00;;;;;;4987161;28;20454;-49
2022/02/03 07:23:15;;;;;;;6.57;4.20;;;8.50;89.00;;;;;;4994673;28;20500;-50
2022/02/03 07:25:43;;;;;;;5.20;4.23;;;8.60;88.90;;;;;;4995100;28;20469;-49
2022/02/03 07:28:12;;;;;;;3.60;3.30;;;8.60;88.90;;;;;;4997960;28;20472;-49
2022/02/03 07:30:39;;;;;;;5.00;3.57;;;8.60;88.80;;;;;;4991713;28;20446;-49
2022/02/03 07:33:07;;;;;;;3.87;2.80;;;8.60;88.80;;;;;;4997846;28;20945;-50
2022/02/03 07:35:35;;;;;;;4.03;3.20;;;8.70;88.80;;;;;;4997391;28;20501;-50
2022/02/03 07:38:05;;;;;;;3.10;2.80;;;8.70;88.60;;;;;;4997149;28;21025;-50
2022/02/03 07:40:32;;;;;;;4.50;2.97;;;8.70;88.50;;;;;;4987021;28;20469;-50
2022/02/03 07:43:02;;;;;;;3.10;2.63;;;8.70;88.60;;;;;;4993428;28;20494;-50
2022/02/03 07:45:30;;;;;;;2.53;2.27;;;8.70;88.50;;;;;;4985254;28;20489;-50
2022/02/03 07:47:57;;;;;;;3.37;2.70;;;8.80;88.30;;;;;;4994402;28;20817;-49
2022/02/03 07:50:24;;;;;;;2.77;2.57;;;8.80;88.30;;;;;;5005821;28;20468;-50
2022/02/03 07:52:51;;;;;;;3.87;2.47;;;8.90;88.40;;;;;;4995832;28;20496;-50
2022/02/03 07:55:20;;;;;;;3.17;2.80;;;8.90;88.20;;;;;;4996191;28;20481;-50
2022/02/03 07:57:51;;;;;;;3.50;2.73;;;8.90;88.20;;;;;;4997119;28;20530;-50
2022/02/03 08:00:21;;;;;;;3.17;2.87;;;8.90;88.30;;;;;;4996436;28;20528;-50
2022/02/03 08:03:12;;;;;;;3.60;2.90;;;8.90;88.30;;;;;;4997983;28;20469;-50
2022/02/03 08:05:42;;;;;;;3.30;3.00;;;8.90;88.50;;;;;;5002865;28;20481;-50
2022/02/03 08:08:21;;;;;;;3.73;3.10;;;8.90;88.40;;;;;;4993876;28;20453;-51
2022/02/03 08:10:55;;;;;;;3.73;3.17;;;8.90;88.30;;;;;;4994069;28;20480;-50
2022/02/03 08:13:30;;;;;;;4.00;3.00;;;9.00;88.20;;;;;;4999171;28;20549;-50
2022/02/03 08:16:11;;;;;;;5.10;3.57;;;8.90;88.30;;;;;;5001955;28;20508;-50
2022/02/03 08:18:45;;;;;;;4.80;4.27;;;9.00;88.30;;;;;;4994039;28;20463;-50
2022/02/03 08:21:15;;;;;;;4.60;3.77;;;9.10;87.90;;;;;;4983504;28;20887;-50
2022/02/03 08:24:15;;;;;;;6.00;3.40;;;9.10;87.80;;;;;;4990626;28;20968;-50
2022/02/03 08:34:36;;;;;;;6.90;4.33;;;9.20;87.60;;;;;;4994342;28;21220;-51
2022/02/03 08:37:05;;;;;;;8.37;3.90;;;9.20;87.40;;;;;;4993804;28;20472;-50
2022/02/03 08:39:38;;;;;;;5.57;3.93;;;9.20;87.20;;;;;;4994255;28;20920;-51
2022/02/03 08:42:05;;;;;;;6.30;4.83;;;9.30;86.90;;;;;;4995486;28;20468;-50
2022/02/03 08:44:32;;;;;;;6.00;3.40;;;9.30;86.70;;;;;;4977189;28;20859;-50
2022/02/03 08:46:58;;;;;;;5.87;3.80;;;9.30;86.50;;;;;;4997946;28;20461;-51
2022/02/03 08:49:25;;;;;;;5.03;4.53;;;9.30;86.60;;;;;;4999204;28;20468;-51
2022/02/03 08:51:54;;;;;;;4.97;4.23;;;9.30;86.60;;;;;;4994352;28;20479;-51
2022/02/03 08:54:25;;;;;;;5.53;4.93;;;9.40;86.30;;;;;;4998582;28;20568;-50
2022/02/03 08:57:03;;;;;;;5.93;4.30;;;9.40;86.10;;;;;;4997992;28;20466;-51
2022/02/03 08:59:58;;;;;;;;;;;;;;;;;;;;;
2022/02/03 09:39:05;;;;;;;8.63;5.00;;;9.90;83.70;;;;;;5000724;28;20487;-50
2022/02/03 09:59:48;;;;;;;2.70;2.50;;;10.00;81.40;;;;;;4998609;28;20497;-51
2022/02/03 10:02:23;;;;;;;3.87;3.57;;;10.00;81.30;;;;;;5000014;28;20461;-51
2022/02/03 10:04:57;;;;;;;3.27;2.77;;;10.00;81.50;;;;;;5002360;28;20534;-51
2022/02/03 10:07:30;;;;;;;3.53;3.23;;;9.90;81.80;;;;;;5030699;28;20469;-51
2022/02/03 10:10:07;;;;;;;3.20;2.53;;;10.00;81.90;;;;;;5010463;28;20529;-51
2022/02/03 10:12:40;;;;;;;3.07;2.47;;;10.00;81.60;;;;;;5002075;28;20441;-51
2022/02/03 10:15:10;;;;;;;2.87;2.10;;;9.90;82.00;;;;;;5029232;28;20477;-51
2022/02/03 10:17:46;;;;;;;2.43;2.23;;;9.90;82.40;;;;;;4983576;28;20484;-52
2022/02/03 10:20:18;;;;;;;1.90;1.53;;;9.90;82.40;;;;;;4998720;28;20459;-50
2022/02/03 10:22:46;;;;;;;2.07;1.80;;;9.90;82.30;;;;;;4995975;28;20481;-50
2022/02/03 10:25:17;;;;;;;2.27;2.07;;;9.90;82.50;;;;;;5003223;28;20491;-50
2022/02/03 10:27:50;;;;;;;4.13;2.00;;;9.90;82.60;;;;;;5008254;28;20966;-51
2022/02/03 10:30:28;;;;;;;2.00;1.80;;;9.90;83.00;;;;;;4999566;28;20564;-51
2022/02/03 10:32:55;;;;;;;3.50;2.53;;;9.90;82.80;;;;;;5005550;28;20501;-51
2022/02/03 10:35:29;;;;;;;1.70;1.60;;;10.00;82.50;;;;;;5002910;28;20467;-51
2022/02/03 10:38:08;;;;;;;3.00;1.63;;;10.00;82.40;;;;;;5000763;28;20457;-51
2022/02/03 10:40:54;;;;;;;1.53;1.43;;;10.00;82.60;;;;;;4993729;28;20457;-51
2022/02/03 10:43:53;;;;;;;1.40;1.30;;;10.10;82.60;;;;;;5000803;28;20457;-51
2022/02/03 11:06:21;;;;;;;6.90;3.13;;;10.30;79.10;;;;;;4986290;28;20489;-50
2022/02/03 11:11:23;;;;;;;2.63;2.03;;;10.20;79.60;;;;;;4994231;28;20469;-50
2022/02/03 11:13:51;;;;;;;2.23;2.03;;;10.20;80.00;;;;;;4987807;28;20461;-50
2022/02/03 11:16:20;;;;;;;2.17;1.97;;;10.20;79.80;;;;;;5000004;28;20529;-50
2022/02/03 11:18:49;;;;;;;2.30;2.10;;;10.20;79.20;;;;;;4999112;28;20449;-50
2022/02/03 11:21:16;;;;;;;3.00;2.13;;;10.20;79.10;;;;;;4997275;28;20513;-50
2022/02/03 11:23:59;;;;;;;2.80;2.07;;;10.20;79.20;;;;;;4998199;28;20533;-50
2022/02/03 11:26:45;;;;;;;;;;;;;;;;;;;;;
2022/02/03 11:43:21;;;;;;;1.60;1.50;;;9.90;79.40;;;;;;4989398;28;20795;-49
2022/02/03 12:02:04;;;;;;;2.77;1.73;;;10.00;79.30;;;;;;4998671;28;20962;-49
2022/02/03 12:23:59;;;;;;;5.83;2.90;;;10.10;78.20;;;;;;4996686;28;20568;-48
2022/02/03 12:26:45;;;;;;;3.40;1.77;;;10.10;78.30;;;;;;5001880;28;20489;-50
2022/02/03 12:29:50;;;;;;;2.70;1.80;;;10.10;78.10;;;;;;5003077;28;20456;-49
2022/02/03 12:40:03;;;;;;;2.93;1.90;;;10.10;78.50;;;;;;4999749;28;20545;-49
2022/02/03 12:45:37;;;;;;;2.03;1.80;;;10.10;78.80;;;;;;4994009;28;20473;-50
2022/02/03 12:48:04;;;;;;;2.53;1.87;;;10.20;78.10;;;;;;4994388;28;21097;-50
2022/02/03 12:50:34;;;;;;;2.73;2.00;;;10.20;78.30;;;;;;4999131;28;20866;-50
2022/02/03 12:53:02;;;;;;;2.23;1.90;;;10.20;78.40;;;;;;5002567;28;20453;-50
2022/02/03 12:55:35;;;;;;;3.80;1.90;;;10.30;78.20;;;;;;4993187;28;20483;-49
2022/02/03 12:58:15;;;;;;;1.80;1.70;;;10.30;78.20;;;;;;4997129;28;20450;-48
2022/02/03 13:00:56;;;;;;;2.57;2.37;;;10.30;78.10;;;;;;5019846;28;20526;-49
2022/02/03 13:03:40;;;;;;;2.40;2.20;;;10.30;78.30;;;;;;4997426;28;20471;-49
2022/02/03 13:06:19;;;;;;;2.90;2.17;;;10.30;78.50;;;;;;5005417;28;20496;-49
2022/02/03 13:08:51;;;;;;;3.23;2.90;;;10.30;78.40;;;;;;4999098;28;20453;-52
2022/02/03 13:16:34;;;;;;;3.57;2.67;;;10.20;78.50;;;;;;4997817;28;20464;-49
2022/02/03 13:19:12;;;;;;;16.50;7.80;;;10.20;78.40;;;;;;5006863;28;21044;-49
2022/02/03 13:27:00;;;;;;;2.37;2.07;;;10.10;78.20;;;;;;5005658;28;20488;-50
2022/02/03 13:29:52;;;;;;;4.93;2.77;;;10.10;78.50;;;;;;5000005;28;20461;-49
2022/02/03 13:32:27;;;;;;;3.33;2.60;;;10.00;78.70;;;;;;5005096;28;20530;-49
2022/02/03 13:35:12;;;;;;;5.50;3.53;;;10.00;78.30;;;;;;5002879;28;20519;-50
2022/02/03 13:38:06;;;;;;;4.10;2.90;;;10.10;78.00;;;;;;4997757;28;20449;-49
2022/02/03 13:40:33;;;;;;;3.13;2.83;;;10.00;78.30;;;;;;5002503;28;20465;-49
2022/02/03 13:43:08;;;;;;;4.07;3.70;;;10.00;78.30;;;;;;5030107;28;20454;-50
2022/02/03 13:45:39;;;;;;;4.27;3.37;;;10.00;78.80;;;;;;5000404;28;20491;-50
2022/02/03 13:48:20;;;;;;;2.90;2.40;;;10.00;78.70;;;;;;5002716;28;20463;-49
2022/02/03 13:50:58;;;;;;;4.63;3.80;;;10.00;78.90;;;;;;5001519;28;20463;-49
2022/02/03 13:53:34;;;;;;;4.47;3.63;;;10.00;77.90;;;;;;5002340;28;21023;-48
2022/02/03 14:29:06;;;;;;;5.20;3.93;;;9.90;75.40;;;;;;5003365;28;21040;-49
2022/02/03 14:31:34;;;;;;;4.20;3.77;;;9.90;75.50;;;;;;4991144;28;20455;-50
2022/02/03 14:34:06;;;;;;;4.20;3.80;;;9.90;75.00;;;;;;5003187;28;20537;-49
2022/02/03 14:36:33;;;;;;;3.63;3.00;;;9.80;74.90;;;;;;4993485;28;20474;-49
2022/02/03 14:39:16;;;;;;;3.60;3.30;;;9.80;75.10;;;;;;5006543;28;21083;-49
2022/02/03 14:41:46;;;;;;;4.40;3.90;;;9.80;75.20;;;;;;4996348;28;20466;-49
2022/02/03 14:44:16;;;;;;;3.80;3.50;;;9.80;75.20;;;;;;5003997;28;20472;-48
2022/02/03 14:46:44;;;;;;;3.13;2.70;;;9.80;75.30;;;;;;4994177;28;21007;-49
2022/02/03 14:49:11;;;;;;;2.83;2.63;;;9.80;75.40;;;;;;4998350;28;20532;-51
2022/02/03 14:52:11;;;;;;;3.33;2.30;;;9.80;74.50;;;;;;4998724;28;20486;-49
2022/02/03 14:59:39;;;;;;;2.47;1.80;;;9.70;74.20;;;;;;4997765;28;20465;-49
2022/02/03 15:02:08;;;;;;;2.30;1.90;;;9.70;74.50;;;;;;4996697;28;20481;-49
2022/02/03 15:04:38;;;;;;;1.40;1.30;;;9.60;74.50;;;;;;5013955;28;20460;-49
2022/02/03 15:07:08;;;;;;;1.93;1.23;;;9.60;74.80;;;;;;5000681;28;20549;-49
2022/02/03 15:12:41;;;;;;;1.53;1.43;;;9.50;74.70;;;;;;4985252;28;20976;-47
2022/02/03 15:15:09;;;;;;;6.40;3.80;;;9.50;75.20;;;;;;4981664;28;20978;-47
2022/02/03 15:17:36;;;;;;;2.83;2.00;;;9.50;75.10;;;;;;4985471;28;20580;-47
2022/02/03 15:20:05;;;;;;;3.43;1.70;;;9.50;75.20;;;;;;4966120;28;20545;-46
2022/02/03 15:22:32;;;;;;;2.97;2.27;;;9.40;75.30;;;;;;4983071;28;20576;-46
2022/02/03 15:25:00;;;;;;;2.50;2.30;;;9.40;75.80;;;;;;4983291;28;20996;-46
2022/02/03 15:27:27;;;;;;;1.97;1.87;;;9.40;75.90;;;;;;4983089;28;20497;-46
2022/02/03 15:29:56;;;;;;;1.70;1.57;;;9.40;76.10;;;;;;4980919;28;20477;-46
2022/02/03 15:32:24;;;;;;;1.90;1.80;;;9.30;76.30;;;;;;4984094;28;20457;-46
2022/02/03 15:34:53;;;;;;;3.20;2.63;;;9.30;76.20;;;;;;4980563;28;20885;-46
2022/02/03 15:37:21;;;;;;;2.17;2.00;;;9.30;76.00;;;;;;4982609;28;20540;-46
2022/02/03 15:39:50;;;;;;;1.90;1.73;;;9.30;76.20;;;;;;4975197;28;20464;-46
2022/02/03 15:42:26;;;;;;;1.90;1.80;;;9.30;76.30;;;;;;4981849;28;20828;-46
2022/02/03 15:44:55;;;;;;;1.60;1.50;;;9.20;76.40;;;;;;4978090;28;20469;-46
2022/02/03 16:01:28;;;;;;;1.00;1.00;;;9.20;76.40;;;;;;4983245;28;20460;-46
2022/02/03 16:17:30;;;;;;;1.07;1.07;;;9.00;77.80;;;;;;4982906;28;21288;-47
2022/02/03 16:23:29;;;;;;;2.17;1.30;;;9.00;78.00;;;;;;4960144;28;21024;-46
2022/02/03 16:53:16;;;;;;;3.13;2.47;;;9.00;77.50;;;;;;4982028;28;20833;-47
2022/02/03 16:55:45;;;;;;;3.43;3.13;;;9.00;77.50;;;;;;4981687;28;20469;-46
2022/02/03 16:58:14;;;;;;;3.73;2.77;;;9.00;77.50;;;;;;4983451;28;21351;-46
2022/02/03 17:00:44;;;;;;;1.90;1.80;;;9.00;77.70;;;;;;4982544;28;20471;-46
2022/02/03 17:03:11;;;;;;;2.60;2.40;;;9.00;77.40;;;;;;4981902;28;20453;-46
2022/02/03 17:05:38;;;;;;;2.90;2.60;;;8.90;77.50;;;;;;4977958;28;20454;-47
2022/02/03 17:08:06;;;;;;;2.80;2.60;;;9.00;77.50;;;;;;4980471;28;20819;-47
2022/02/03 17:10:33;;;;;;;2.00;1.90;;;8.90;77.60;;;;;;4979556;28;20468;-47
2022/02/03 17:13:00;;;;;;;1.90;1.80;;;8.90;77.80;;;;;;4979988;28;20540;-47
2022/02/03 17:15:27;;;;;;;2.20;2.00;;;8.90;77.90;;;;;;4981625;28;20479;-47
2022/02/03 17:17:53;;;;;;;2.43;2.23;;;8.90;77.90;;;;;;4978442;28;20488;-47
2022/02/03 17:20:23;;;;;;;2.20;1.93;;;8.90;78.20;;;;;;4980502;28;20988;-47
2022/02/03 17:22:53;;;;;;;4.40;1.90;;;8.90;78.20;;;;;;4980798;28;20943;-47
2022/02/03 17:25:29;;;;;;;3.40;2.90;;;8.90;78.40;;;;;;4977048;28;20941;-47
2022/02/03 17:30:31;;;;;;;2.90;2.60;;;8.90;78.10;;;;;;4978672;28;20462;-47
2022/02/03 18:03:01;;;;;;;1.90;1.60;;;8.90;78.40;;;;;;4984082;28;20830;-46
2022/02/03 18:09:13;;;;;;;2.90;2.60;;;8.90;78.50;;;;;;4988396;28;20466;-47
2022/02/03 18:45:48;;;;;;;4.40;4.00;;;8.80;79.00;;;;;;4976707;28;20496;-50
2022/02/03 18:51:48;;;;;;;3.60;3.30;;;8.90;78.40;;;;;;4973801;28;20490;-51
2022/02/03 18:56:51;;;;;;;3.43;2.90;;;8.90;78.30;;;;;;4982160;28;20462;-50
2022/02/03 20:03:07;;;;;;;7.83;5.20;;;8.60;78.70;;;;;;4990971;28;20540;-49
2022/02/03 20:06:15;;;;;;;7.70;5.27;;;8.60;78.60;;;;;;4991320;28;20536;-49
2022/02/03 20:08:29;;;;;;;5.70;5.10;;;8.60;78.60;;;;;;4976770;28;20499;-50
2022/02/03 20:10:56;;;;;;;7.00;5.20;;;8.60;78.60;;;;;;4991265;28;20496;-49
2022/02/03 20:13:22;;;;;;;5.77;5.03;;;8.60;78.50;;;;;;4993128;28;20563;-49
2022/02/03 20:15:49;;;;;;;6.93;5.17;;;8.60;78.60;;;;;;4992556;28;20549;-50
2022/02/03 20:18:19;;;;;;;7.00;5.80;;;8.60;78.70;;;;;;5013733;28;20457;-49
2022/02/03 20:20:46;;;;;;;6.60;5.20;;;8.50;78.80;;;;;;4998456;28;20970;-49
2022/02/03 20:23:16;;;;;;;7.67;6.20;;;8.60;78.80;;;;;;4995884;28;20477;-49
2022/02/03 20:25:50;;;;;;;7.60;5.40;;;8.60;78.90;;;;;;4993544;28;20485;-50
2022/02/03 20:28:17;;;;;;;6.93;5.87;;;8.60;78.60;;;;;;4992689;28;20851;-50
2022/02/03 20:30:44;;;;;;;7.90;5.87;;;8.60;78.80;;;;;;4993727;28;20466;-50
2022/02/03 20:33:11;;;;;;;5.53;5.03;;;8.60;78.70;;;;;;5003321;28;20558;-49
2022/02/03 20:35:39;;;;;;;7.97;6.43;;;8.60;78.50;;;;;;4995460;28;20458;-50
2022/02/03 20:38:07;;;;;;;6.40;5.03;;;8.60;78.70;;;;;;4998596;28;20549;-49
2022/02/03 20:40:34;;;;;;;7.37;5.20;;;8.60;78.60;;;;;;4992455;28;20558;-50
2022/02/03 20:43:07;;;;;;;7.40;5.43;;;8.60;78.60;;;;;;5021079;28;20478;-49
2022/02/03 20:45:34;;;;;;;8.27;6.37;;;8.60;77.80;;;;;;4991635;28;20461;-49
2022/02/03 20:48:01;;;;;;;9.10;7.23;;;8.60;78.10;;;;;;4993930;28;20545;-50
2022/02/03 20:50:28;;;;;;;8.20;5.90;;;8.60;78.10;;;;;;4997360;28;20556;-50
2022/02/03 20:52:55;;;;;;;7.93;6.57;;;8.50;78.10;;;;;;4991182;28;20458;-50
2022/02/03 20:55:21;;;;;;;7.07;4.80;;;8.50;78.30;;;;;;4997700;28;20479;-50
2022/02/03 20:57:48;;;;;;;6.40;4.77;;;8.50;78.30;;;;;;4991876;28;20458;-49
2022/02/03 21:00:26;;;;;;;6.07;4.50;;;8.50;78.10;;;;;;4986426;28;20468;-49
2022/02/03 21:03:17;;;;;;;6.10;5.23;;;8.50;78.30;;;;;;4989578;28;20481;-49
2022/02/03 21:05:45;;;;;;;5.60;4.50;;;8.50;78.30;;;;;;5012743;28;20548;-49
2022/02/03 21:08:14;;;;;;;5.33;4.37;;;8.50;78.10;;;;;;4993886;28;20553;-49
2022/02/03 21:10:41;;;;;;;5.30;4.70;;;8.50;77.90;;;;;;4990683;28;20450;-49
2022/02/03 21:13:07;;;;;;;5.70;4.47;;;8.50;78.10;;;;;;4993018;28;20546;-50
2022/02/03 21:15:37;;;;;;;5.43;4.90;;;8.50;78.00;;;;;;4986941;28;20537;-50
2022/02/03 21:18:08;;;;;;;4.87;4.37;;;8.40;78.10;;;;;;5022451;28;20465;-49
2022/02/03 21:20:38;;;;;;;6.93;4.73;;;8.40;78.20;;;;;;5017551;28;20479;-50
2022/02/03 21:23:05;;;;;;;6.30;4.67;;;8.40;78.30;;;;;;4993246;28;20988;-50
2022/02/03 21:25:36;;;;;;;6.53;4.57;;;8.40;78.60;;;;;;4992964;28;20540;-49
2022/02/03 21:28:11;;;;;;;6.40;5.23;;;8.40;78.40;;;;;;4997278;28;20513;-50
2022/02/03 21:30:39;;;;;;;5.40;4.37;;;8.40;78.50;;;;;;4993681;28;20465;-50
2022/02/03 21:33:13;;;;;;;5.43;4.03;;;8.40;78.40;;;;;;4996253;28;20457;-50
2022/02/03 21:35:44;;;;;;;6.07;5.10;;;8.40;78.30;;;;;;4995791;28;20453;-50
2022/02/03 21:38:11;;;;;;;6.20;4.30;;;8.40;78.40;;;;;;4996534;28;20463;-50
2022/02/03 21:40:38;;;;;;;5.67;4.90;;;8.40;78.40;;;;;;4994518;28;20468;-50
2022/02/03 21:43:05;;;;;;;7.40;4.50;;;8.50;78.20;;;;;;4999724;28;20457;-49
2022/02/03 21:45:35;;;;;;;4.87;4.40;;;8.50;78.20;;;;;;4990359;28;20522;-49
2022/02/03 21:48:03;;;;;;;5.00;4.43;;;8.50;78.20;;;;;;5004036;28;20489;-50
2022/02/03 21:50:34;;;;;;;6.23;5.03;;;8.40;78.20;;;;;;4997722;28;20521;-50
2022/02/03 21:53:06;;;;;;;5.63;5.00;;;8.40;78.30;;;;;;4999202;28;20459;-50
2022/02/03 21:55:35;;;;;;;7.73;5.20;;;8.50;77.80;;;;;;4992248;28;20471;-49
2022/02/03 21:58:02;;;;;;;5.73;4.53;;;8.50;77.80;;;;;;4995592;28;20449;-50
2022/02/03 22:00:30;;;;;;;6.93;4.73;;;8.40;78.00;;;;;;4993871;28;20545;-49
2022/02/03 22:02:57;;;;;;;5.47;4.77;;;8.40;78.00;;;;;;4998921;28;20500;-50
2022/02/03 22:05:24;;;;;;;6.60;4.90;;;8.30;78.20;;;;;;5000400;28;20461;-49
2022/02/03 22:07:50;;;;;;;6.50;5.30;;;8.40;78.20;;;;;;4999454;28;20479;-49
2022/02/03 22:10:20;;;;;;;10.17;6.10;;;8.40;78.20;;;;;;4997618;28;20932;-50
2022/02/03 22:12:48;;;;;;;7.80;5.40;;;8.40;78.30;;;;;;4992145;28;20461;-49
2022/02/03 22:15:17;;;;;;;6.70;5.40;;;8.40;78.40;;;;;;4999685;28;20528;-50
2022/02/03 22:17:44;;;;;;;8.63;6.40;;;8.40;78.20;;;;;;4990788;28;20457;-49
2022/02/03 22:20:28;;;;;;;7.40;5.47;;;8.30;78.40;;;;;;4999730;28;20509;-49
2022/02/03 22:39:13;;;;;;;6.40;5.33;;;8.40;78.00;;;;;;4999624;28;20513;-49
2022/02/03 22:44:22;;;;;;;5.10;4.60;;;8.30;78.40;;;;;;4996641;28;20449;-48
2022/02/03 22:49:35;;;;;;;7.10;5.80;;;8.30;78.50;;;;;;4996068;28;20454;-49
2022/02/03 22:52:02;;;;;;;8.40;5.97;;;8.30;78.40;;;;;;5012508;28;20465;-49
2022/02/03 22:54:29;;;;;;;5.97;5.13;;;8.30;78.50;;;;;;4995465;28;20475;-49
2022/02/03 22:56:55;;;;;;;6.43;4.70;;;8.20;78.70;;;;;;4987194;28;20533;-49
2022/02/03 23:01:49;;;;;;;5.70;4.70;;;8.20;78.80;;;;;;4997219;28;20471;-49
2022/02/03 23:04:17;;;;;;;5.60;4.50;;;8.30;78.70;;;;;;4993318;28;20628;-50
2022/02/03 23:06:45;;;;;;;7.03;4.50;;;8.20;78.70;;;;;;4992311;28;20461;-49
2022/02/03 23:09:29;;;;;;;6.00;5.40;;;8.30;78.60;;;;;;4993305;28;21185;-49
2022/02/03 23:17:19;;;;;;;6.03;5.27;;;8.20;78.80;;;;;;4993594;28;20521;-49
2022/02/03 23:20:01;;;;;;;4.93;4.00;;;8.30;78.50;;;;;;4987541;28;20458;-49
2022/02/03 23:22:30;;;;;;;5.03;4.53;;;8.20;78.50;;;;;;4997772;28;20472;-49
2022/02/03 23:24:57;;;;;;;4.47;4.00;;;8.20;78.60;;;;;;4991338;28;20947;-48
2022/02/03 23:29:57;;;;;;;5.90;4.33;;;8.30;77.50;;;;;;4994984;28;20513;-49
2022/02/03 23:32:24;;;;;;;3.23;2.93;;;8.20;77.30;;;;;;5001398;28;20561;-49
2022/02/03 23:35:01;;;;;;;4.03;3.37;;;8.20;77.20;;;;;;4990721;28;20536;-48
2022/02/03 23:37:35;;;;;;;4.97;4.00;;;8.20;76.60;;;;;;4994350;28;20461;-48
2022/02/03 23:40:08;;;;;;;4.37;3.97;;;8.20;76.60;;;;;;4993616;28;20512;-49
2022/02/03 23:45:36;;;;;;;6.97;4.03;;;8.10;77.20;;;;;;4994093;28;20493;-49
